Time;durP1;ratioP1;P1;durP2;ratioP2;P2;SDS_P1;SDS_P2;PMS_P1;PMS_P2;Temp;Humidity;BMP_temperature;BMP_pressure;BME280_temperature;BME280_humidity;BME280_pressure;Samples;Min_cycle;Max_cycle;Signal;HPM_P1;HPM_P2
2022/07/09 00:01:28;;;;;;;7.00;3.50;;;16.10;99.90;;;;;;6167912;23;20039;-92
2022/07/09 00:03:55;;;;;;;7.43;3.65;;;16.10;99.90;;;;;;6164318;23;20436;-93
2022/07/09 00:06:20;;;;;;;9.32;3.65;;;16.30;99.90;;;;;;6163349;23;20377;-92
2022/07/09 00:08:47;;;;;;;7.95;3.45;;;16.30;99.90;;;;;;6214942;23;20151;-92
2022/07/09 00:11:13;;;;;;;9.98;3.67;;;16.30;99.90;;;;;;6190575;23;20024;-92
2022/07/09 00:13:39;;;;;;;7.65;4.60;;;16.50;99.90;;;;;;6166966;23;20059;-92
2022/07/09 00:16:05;;;;;;;10.43;4.05;;;16.60;99.90;;;;;;6165695;23;20044;-92
2022/07/09 00:18:31;;;;;;;9.73;4.25;;;16.50;99.90;;;;;;6166363;23;20047;-93
2022/07/09 00:20:57;;;;;;;6.68;4.55;;;16.50;99.90;;;;;;6164711;23;20016;-92
2022/07/09 00:23:22;;;;;;;10.18;5.22;;;16.70;99.90;;;;;;6166740;23;20420;-92
2022/07/09 00:25:48;;;;;;;9.77;5.18;;;16.60;99.90;;;;;;6192766;23;20023;-92
2022/07/09 00:28:14;;;;;;;8.50;4.80;;;16.70;99.90;;;;;;6192159;23;20050;-92
2022/07/09 00:30:40;;;;;;;9.55;4.75;;;16.80;99.90;;;;;;6168520;23;20358;-92
2022/07/09 00:33:06;;;;;;;9.85;4.75;;;16.80;99.90;;;;;;6165944;23;20027;-93
2022/07/09 00:35:32;;;;;;;8.27;4.88;;;16.80;99.90;;;;;;6165628;23;20052;-92
2022/07/09 00:37:57;;;;;;;7.88;5.03;;;16.90;99.90;;;;;;6190092;23;20020;-92
2022/07/09 00:40:23;;;;;;;9.27;4.70;;;16.90;99.90;;;;;;6190762;23;20023;-91
2022/07/09 00:42:49;;;;;;;10.02;5.57;;;16.90;99.90;;;;;;6166794;23;20012;-93
2022/07/09 00:45:17;;;;;;;10.13;5.40;;;16.70;99.90;;;;;;6190365;23;20016;-91
2022/07/09 00:47:43;;;;;;;10.18;5.22;;;16.80;99.90;;;;;;6165189;23;20027;-91
2022/07/09 00:50:10;;;;;;;10.70;5.35;;;16.80;99.90;;;;;;6191134;23;20021;-92
2022/07/09 00:52:38;;;;;;;9.13;5.70;;;16.90;99.90;;;;;;6216950;23;20109;-92
2022/07/09 00:55:06;;;;;;;8.52;5.70;;;16.90;99.90;;;;;;6217376;23;20016;-94
2022/07/09 00:57:33;;;;;;;11.98;5.70;;;17.10;99.90;;;;;;6192569;23;20501;-93
2022/07/09 01:00:00;;;;;;;8.68;5.43;;;16.90;99.90;;;;;;6167827;23;20017;-92
2022/07/09 01:02:25;;;;;;;9.63;5.50;;;17.20;99.90;;;;;;6217435;23;20043;-93
2022/07/09 01:04:51;;;;;;;17.38;5.85;;;17.10;99.90;;;;;;6165979;23;20019;-91
2022/07/09 01:07:17;;;;;;;7.97;4.70;;;17.00;99.90;;;;;;6191502;23;20070;-93
2022/07/09 01:09:44;;;;;;;15.40;6.00;;;17.20;99.90;;;;;;6193464;23;20011;-93
2022/07/09 01:12:10;;;;;;;10.85;5.55;;;17.10;99.90;;;;;;6217041;23;20020;-91
2022/07/09 01:14:35;;;;;;;9.38;5.30;;;17.20;99.90;;;;;;6165725;23;20019;-92
2022/07/09 01:17:03;;;;;;;16.33;6.15;;;17.10;99.90;;;;;;6166968;23;20020;-93
2022/07/09 01:19:31;;;;;;;10.45;5.93;;;17.30;99.90;;;;;;6189333;23;20051;-92
2022/07/09 01:21:57;;;;;;;15.90;5.97;;;17.30;99.90;;;;;;6217514;23;20012;-93
2022/07/09 01:24:24;;;;;;;9.85;6.00;;;17.10;99.90;;;;;;6191791;23;20504;-95
2022/07/09 01:26:52;;;;;;;9.68;5.93;;;17.20;99.90;;;;;;6194542;23;20035;-94
2022/07/09 01:29:18;;;;;;;11.77;6.10;;;17.30;99.90;;;;;;6217192;23;20008;-94
2022/07/09 01:31:44;;;;;;;9.32;5.60;;;17.20;99.90;;;;;;6195511;23;20012;-93
2022/07/09 01:34:10;;;;;;;10.55;5.35;;;17.20;99.90;;;;;;6168708;23;20016;-94
2022/07/09 01:36:36;;;;;;;9.73;5.32;;;17.10;99.90;;;;;;6168308;23;20095;-93
2022/07/09 01:39:03;;;;;;;12.40;5.57;;;17.00;99.90;;;;;;6216498;23;20099;-94
2022/07/09 01:41:30;;;;;;;9.40;5.47;;;17.00;99.90;;;;;;6192562;23;20458;-93
2022/07/09 01:43:56;;;;;;;10.07;6.03;;;17.10;99.90;;;;;;6191937;23;20052;-93
2022/07/09 01:46:22;;;;;;;11.23;5.55;;;17.00;99.90;;;;;;6167271;23;20052;-95
2022/07/09 01:48:48;;;;;;;12.43;5.47;;;17.20;99.90;;;;;;6166531;23;20012;-94
2022/07/09 01:51:15;;;;;;;12.05;5.43;;;17.20;99.90;;;;;;6167098;23;20039;-94
2022/07/09 01:53:41;;;;;;;13.50;6.07;;;17.10;99.90;;;;;;6167813;23;20012;-92
2022/07/09 01:56:08;;;;;;;12.00;5.78;;;17.20;99.90;;;;;;6165374;23;20115;-94
2022/07/09 01:58:35;;;;;;;14.32;6.22;;;17.10;99.90;;;;;;6216904;23;20081;-92
2022/07/09 02:01:01;;;;;;;12.80;6.20;;;17.20;99.90;;;;;;6190637;23;20332;-92
2022/07/09 02:03:27;;;;;;;9.52;6.35;;;17.00;99.90;;;;;;6217828;23;20012;-93
2022/07/09 02:05:53;;;;;;;10.55;6.03;;;17.30;99.90;;;;;;6199398;23;20058;-92
2022/07/09 02:08:19;;;;;;;13.65;7.03;;;17.30;99.90;;;;;;6197815;23;20523;-94
2022/07/09 02:10:48;;;;;;;10.63;6.15;;;17.10;99.90;;;;;;6193427;23;20024;-93
2022/07/09 02:13:14;;;;;;;9.25;6.28;;;17.10;99.90;;;;;;6167806;23;20023;-93
2022/07/09 02:15:40;;;;;;;16.23;6.85;;;17.00;99.90;;;;;;6167775;23;20016;-92
2022/07/09 02:18:06;;;;;;;11.75;7.10;;;17.20;99.90;;;;;;6192650;23;20012;-94
2022/07/09 02:20:32;;;;;;;14.95;6.60;;;17.10;99.90;;;;;;6193058;23;20136;-94
2022/07/09 02:22:58;;;;;;;13.35;6.43;;;17.10;99.90;;;;;;6167425;23;20095;-93
2022/07/09 02:25:24;;;;;;;10.55;6.28;;;17.00;99.90;;;;;;6192907;23;20019;-94
2022/07/09 02:27:50;;;;;;;10.02;6.25;;;17.00;99.90;;;;;;6168939;23;20016;-94
2022/07/09 02:30:16;;;;;;;10.20;6.05;;;17.00;99.90;;;;;;6192025;23;20567;-94
2022/07/09 02:32:42;;;;;;;10.30;6.35;;;17.10;99.90;;;;;;6166584;23;20327;-94
2022/07/09 02:35:08;;;;;;;14.63;5.75;;;17.20;99.90;;;;;;6168225;23;20018;-92
2022/07/09 02:37:34;;;;;;;12.95;5.97;;;17.20;99.90;;;;;;6167318;23;20016;-94
2022/07/09 02:40:00;;;;;;;11.93;6.00;;;17.20;99.90;;;;;;6217669;23;20027;-95
2022/07/09 02:42:26;;;;;;;16.33;6.60;;;17.10;99.90;;;;;;6217845;23;20016;-93
2022/07/09 02:44:51;;;;;;;11.10;5.30;;;17.20;99.90;;;;;;6169066;23;20016;-93
2022/07/09 02:47:17;;;;;;;10.68;5.57;;;17.20;99.90;;;;;;6165575;23;20066;-93
2022/07/09 02:49:43;;;;;;;14.90;5.95;;;17.10;99.90;;;;;;6167273;23;20012;-93
2022/07/09 02:52:09;;;;;;;13.48;5.13;;;17.30;99.90;;;;;;6190605;23;20016;-94
2022/07/09 02:54:35;;;;;;;11.50;5.82;;;17.20;99.90;;;;;;6165630;23;20059;-93
2022/07/09 02:57:01;;;;;;;8.63;5.30;;;17.00;99.90;;;;;;6189528;23;20020;-93
2022/07/09 02:59:27;;;;;;;10.23;5.00;;;17.20;99.90;;;;;;6164475;23;20020;-93
2022/07/09 03:01:52;;;;;;;12.00;5.30;;;17.00;99.90;;;;;;6192430;23;20473;-94
2022/07/09 03:04:18;;;;;;;12.70;6.05;;;17.10;99.90;;;;;;6165697;23;20070;-93
2022/07/09 03:06:44;;;;;;;11.63;5.10;;;17.10;99.90;;;;;;6164902;23;20012;-92
2022/07/09 03:09:10;;;;;;;8.70;4.90;;;17.10;99.90;;;;;;6191682;23;20019;-93
2022/07/09 03:11:36;;;;;;;9.10;5.38;;;17.10;99.90;;;;;;6192049;23;20030;-93
2022/07/09 03:14:02;;;;;;;11.95;5.03;;;17.00;99.90;;;;;;6169624;23;20099;-92
2022/07/09 03:16:28;;;;;;;10.15;5.22;;;16.90;99.90;;;;;;6169078;23;20050;-93
2022/07/09 03:18:54;;;;;;;10.00;5.07;;;17.00;99.90;;;;;;6168179;23;20012;-93
2022/07/09 03:21:20;;;;;;;9.00;5.45;;;17.10;99.90;;;;;;6190377;23;20478;-92
2022/07/09 03:23:46;;;;;;;9.90;5.13;;;16.90;99.90;;;;;;6168376;23;20016;-93
2022/07/09 03:26:13;;;;;;;14.68;5.70;;;16.80;99.90;;;;;;6165641;23;20047;-93
2022/07/09 03:28:38;;;;;;;11.48;5.30;;;17.00;99.90;;;;;;6164308;23;20020;-93
2022/07/09 03:31:04;;;;;;;9.13;4.75;;;17.00;99.90;;;;;;6190274;23;20012;-93
2022/07/09 03:33:30;;;;;;;8.02;5.20;;;17.00;99.90;;;;;;6165878;23;20013;-92
2022/07/09 03:35:56;;;;;;;10.77;4.50;;;16.90;99.90;;;;;;6165726;23;20031;-94
2022/07/09 03:38:23;;;;;;;13.85;4.88;;;17.00;99.90;;;;;;6191880;23;20073;-93
2022/07/09 03:40:50;;;;;;;10.18;5.35;;;17.00;99.90;;;;;;6216664;23;20012;-93
2022/07/09 03:43:16;;;;;;;10.43;4.85;;;16.80;99.90;;;;;;6167497;23;20386;-93
2022/07/09 03:45:42;;;;;;;11.75;4.80;;;17.00;99.90;;;;;;6192898;23;20018;-92
2022/07/09 03:48:08;;;;;;;8.73;4.45;;;17.00;99.90;;;;;;6191950;23;20086;-93
2022/07/09 03:50:34;;;;;;;8.90;4.60;;;17.00;99.90;;;;;;6166997;23;20016;-94
2022/07/09 03:53:00;;;;;;;12.15;5.03;;;17.10;99.90;;;;;;6166991;23;20016;-93
2022/07/09 03:55:25;;;;;;;10.07;4.68;;;17.00;99.90;;;;;;6165765;23;20019;-92
2022/07/09 03:57:51;;;;;;;11.90;4.68;;;16.80;99.90;;;;;;6190935;23;20024;-93
2022/07/09 04:00:17;;;;;;;9.32;4.28;;;17.10;99.90;;;;;;6191797;23;20008;-93
2022/07/09 04:02:43;;;;;;;11.40;4.65;;;17.10;99.90;;;;;;6170158;23;20012;-92
2022/07/09 04:05:09;;;;;;;8.77;4.82;;;16.90;99.90;;;;;;6194688;23;20480;-94
2022/07/09 04:07:35;;;;;;;9.82;4.63;;;17.10;99.90;;;;;;6193352;23;20016;-93
2022/07/09 04:10:02;;;;;;;9.73;5.25;;;16.90;99.90;;;;;;6217809;22;20075;-93
2022/07/09 04:12:28;;;;;;;7.15;4.40;;;17.20;99.90;;;;;;6203010;22;20023;-93
2022/07/09 04:14:54;;;;;;;9.77;4.30;;;17.20;99.90;;;;;;6204493;22;20022;-92
2022/07/09 04:17:20;;;;;;;8.45;4.20;;;17.10;99.90;;;;;;6231097;22;19999;-92
2022/07/09 04:19:46;;;;;;;8.00;4.28;;;17.20;99.90;;;;;;6256036;22;20011;-93
2022/07/09 04:22:11;;;;;;;9.48;4.28;;;17.10;99.90;;;;;;6230217;22;20041;-93
2022/07/09 04:24:37;;;;;;;8.75;4.45;;;17.30;99.90;;;;;;6207956;22;20014;-92
2022/07/09 04:27:03;;;;;;;10.57;4.43;;;17.40;99.90;;;;;;6233769;22;20019;-93
2022/07/09 04:29:29;;;;;;;7.60;4.00;;;17.30;99.90;;;;;;6206866;22;20030;-92
2022/07/09 04:31:55;;;;;;;8.43;4.40;;;17.40;99.90;;;;;;6232642;22;20011;-95
2022/07/09 04:34:21;;;;;;;8.13;4.20;;;17.40;99.90;;;;;;6207211;22;20019;-92
2022/07/09 04:36:47;;;;;;;10.45;4.63;;;17.30;99.90;;;;;;6210849;22;20057;-93
2022/07/09 04:39:13;;;;;;;9.35;4.00;;;17.30;99.90;;;;;;6208476;22;20084;-93
2022/07/09 04:41:39;;;;;;;10.48;5.00;;;17.30;99.90;;;;;;6209161;22;20098;-93
2022/07/09 04:44:05;;;;;;;7.55;4.50;;;17.50;99.90;;;;;;6209145;22;20083;-94
2022/07/09 04:46:32;;;;;;;12.02;4.40;;;17.60;99.90;;;;;;6234221;22;20015;-93
2022/07/09 04:48:58;;;;;;;9.82;4.80;;;17.40;99.90;;;;;;6233778;22;20129;-93
2022/07/09 04:51:24;;;;;;;14.55;5.78;;;17.40;99.90;;;;;;6206222;22;20015;-94
2022/07/09 04:53:50;;;;;;;10.93;4.40;;;17.60;99.90;;;;;;6232330;22;20072;-94
2022/07/09 04:56:16;;;;;;;9.35;4.22;;;17.10;99.90;;;;;;6232852;22;20022;-93
2022/07/09 04:58:51;;;;;;;7.30;4.22;;;17.60;99.90;;;;;;6208727;22;20015;-93
2022/07/09 05:01:21;;;;;;;6.65;3.88;;;17.60;99.90;;;;;;6235495;22;20015;-94
2022/07/09 05:03:47;;;;;;;7.63;3.85;;;17.80;99.90;;;;;;6236515;22;20447;-94
2022/07/09 05:06:17;;;;;;;7.63;3.75;;;17.70;99.90;;;;;;6234643;22;20007;-93
2022/07/09 05:08:44;;;;;;;8.60;4.50;;;17.70;99.90;;;;;;6264698;22;20007;-93
2022/07/09 05:11:10;;;;;;;6.03;3.90;;;17.70;99.90;;;;;;6212371;23;20020;-95
2022/07/09 05:13:39;;;;;;;5.70;3.50;;;17.80;99.90;;;;;;6224174;23;20016;-93
2022/07/09 05:16:06;;;;;;;7.72;3.92;;;17.80;99.90;;;;;;6224194;23;20023;-92
2022/07/09 05:18:32;;;;;;;8.48;3.50;;;17.60;99.90;;;;;;6176650;23;20012;-92
2022/07/09 05:20:58;;;;;;;8.20;3.90;;;17.90;99.90;;;;;;6221502;23;20012;-95
2022/07/09 05:23:24;;;;;;;6.70;3.53;;;17.80;99.90;;;;;;6196879;23;20004;-94
2022/07/09 05:25:50;;;;;;;5.63;3.80;;;17.70;99.90;;;;;;6173716;23;20012;-93
2022/07/09 05:28:16;;;;;;;6.22;3.50;;;17.70;99.90;;;;;;6172907;23;20019;-91
2022/07/09 05:30:44;;;;;;;8.77;4.13;;;17.70;99.90;;;;;;6198618;23;20019;-96
2022/07/09 05:33:11;;;;;;;6.15;3.42;;;17.70;99.90;;;;;;6199516;23;20032;-93
2022/07/09 05:35:38;;;;;;;7.07;3.90;;;17.90;99.90;;;;;;6199354;23;20019;-94
2022/07/09 05:38:04;;;;;;;7.78;4.10;;;17.90;99.90;;;;;;6198464;23;20091;-93
2022/07/09 05:40:30;;;;;;;7.43;3.88;;;18.00;99.90;;;;;;6224754;23;20039;-93
2022/07/09 05:42:56;;;;;;;9.45;3.80;;;18.00;99.90;;;;;;6199836;23;20008;-93
2022/07/09 05:45:22;;;;;;;8.68;3.55;;;18.00;99.90;;;;;;6199487;23;20091;-93
2022/07/09 05:47:48;;;;;;;7.13;3.85;;;17.80;99.90;;;;;;6171932;23;20008;-93
2022/07/09 05:50:13;;;;;;;9.60;3.97;;;17.90;99.90;;;;;;6174584;23;20019;-96
2022/07/09 05:52:39;;;;;;;9.40;3.80;;;17.90;99.90;;;;;;6199764;23;20389;-95
2022/07/09 05:55:06;;;;;;;8.93;3.72;;;18.10;99.90;;;;;;6200786;23;20422;-94
2022/07/09 05:57:33;;;;;;;8.18;4.03;;;18.10;99.90;;;;;;6180355;23;20016;-94
2022/07/09 05:59:59;;;;;;;7.88;3.65;;;17.90;99.90;;;;;;6197866;23;20019;-95
2022/07/09 06:02:25;;;;;;;8.60;3.70;;;18.20;99.90;;;;;;6196731;23;20475;-93
2022/07/09 06:04:51;;;;;;;8.30;4.35;;;18.20;99.90;;;;;;6169511;23;20019;-93
2022/07/09 06:07:17;;;;;;;5.15;3.33;;;18.00;99.90;;;;;;6172469;23;20039;-93
2022/07/09 06:09:43;;;;;;;6.28;3.65;;;17.90;99.90;;;;;;6198423;23;20012;-90
2022/07/09 06:12:09;;;;;;;5.68;3.35;;;18.20;99.90;;;;;;6197687;23;20390;-94
2022/07/09 06:14:35;;;;;;;9.25;4.07;;;18.10;99.90;;;;;;6195576;23;20349;-92
2022/07/09 06:17:05;;;;;;;7.20;3.72;;;18.10;99.90;;;;;;6172292;23;20024;-93
2022/07/09 06:19:35;;;;;;;5.47;3.65;;;18.10;99.90;;;;;;6199265;23;20094;-93
2022/07/09 06:22:01;;;;;;;8.02;3.58;;;18.30;99.90;;;;;;6223780;23;20086;-92
2022/07/09 06:24:27;;;;;;;5.90;3.63;;;18.40;99.90;;;;;;6173575;23;20012;-91
2022/07/09 06:26:53;;;;;;;8.20;3.50;;;18.40;99.90;;;;;;6176941;23;20039;-94
2022/07/09 06:29:22;;;;;;;8.20;3.38;;;18.40;99.90;;;;;;6173567;23;20081;-91
2022/07/09 06:31:48;;;;;;;5.35;3.47;;;18.30;99.90;;;;;;6173760;23;20020;-94
2022/07/09 06:34:14;;;;;;;5.22;3.05;;;18.20;99.90;;;;;;6177533;23;20082;-93
2022/07/09 06:36:44;;;;;;;8.43;3.22;;;18.30;99.90;;;;;;6200695;23;20067;-93
2022/07/09 06:42:06;;;;;;;8.43;3.35;;;18.40;99.90;;;;;;6230805;23;20565;-95
2022/07/09 06:44:36;;;;;;;6.43;3.60;;;18.40;99.90;;;;;;6199601;23;20117;-94
2022/07/09 06:47:03;;;;;;;5.43;2.88;;;18.20;99.90;;;;;;6179883;23;20023;-93
2022/07/09 06:49:29;;;;;;;7.45;3.03;;;18.30;99.90;;;;;;6226151;23;20012;-94
2022/07/09 06:51:55;;;;;;;4.85;3.10;;;18.40;99.90;;;;;;6201919;23;20051;-94
2022/07/09 06:54:21;;;;;;;8.13;2.67;;;18.10;99.90;;;;;;6225998;23;20020;-93
2022/07/09 06:56:47;;;;;;;7.90;2.80;;;18.20;99.90;;;;;;6176308;23;20012;-95
2022/07/09 06:59:16;;;;;;;10.30;2.95;;;18.40;99.90;;;;;;6179820;23;20016;-95
2022/07/09 07:01:42;;;;;;;8.82;2.78;;;18.50;99.90;;;;;;6233240;23;20012;-95
2022/07/09 07:04:08;;;;;;;5.25;2.92;;;18.50;99.90;;;;;;6228287;23;20024;-95
2022/07/09 07:06:34;;;;;;;4.10;2.38;;;18.50;99.90;;;;;;6175622;23;20310;-92
2022/07/09 07:09:02;;;;;;;9.02;3.00;;;18.50;99.90;;;;;;6200512;23;20337;-93
2022/07/09 07:11:28;;;;;;;6.10;2.83;;;18.40;99.90;;;;;;6174800;23;20056;-91
2022/07/09 07:13:54;;;;;;;6.65;3.10;;;18.40;99.90;;;;;;6172939;23;20023;-92
2022/07/09 07:16:20;;;;;;;4.97;2.47;;;18.50;99.90;;;;;;6173994;23;20055;-93
2022/07/09 07:18:46;;;;;;;5.13;2.63;;;18.50;99.90;;;;;;6203377;23;20059;-94
2022/07/09 07:21:14;;;;;;;5.38;2.30;;;17.40;99.90;;;;;;6202771;23;20050;-93
2022/07/09 07:23:41;;;;;;;8.38;3.38;;;18.80;99.90;;;;;;6201312;23;20012;-95
2022/07/09 07:26:07;;;;;;;4.47;2.75;;;18.90;99.90;;;;;;6204440;23;20018;-94
2022/07/09 07:28:38;;;;;;;8.80;2.60;;;18.80;99.90;;;;;;6204356;23;20095;-94
2022/07/09 07:31:04;;;;;;;4.05;1.98;;;18.90;99.90;;;;;;6226610;23;20008;-92
2022/07/09 07:33:30;;;;;;;5.25;2.10;;;18.70;99.90;;;;;;6229394;23;20016;-95
2022/07/09 07:35:56;;;;;;;5.10;2.20;;;18.80;99.90;;;;;;6203107;23;20338;-93
2022/07/09 07:38:22;;;;;;;5.15;2.05;;;18.70;99.90;;;;;;6229402;23;20016;-93
2022/07/09 07:40:48;;;;;;;7.15;1.90;;;18.90;99.90;;;;;;6201838;23;20146;-93
2022/07/09 07:43:14;;;;;;;8.50;2.20;;;18.80;99.90;;;;;;6205096;23;20424;-95
2022/07/09 07:45:40;;;;;;;7.30;1.80;;;19.20;99.90;;;;;;6177971;23;20442;-93
2022/07/09 07:48:06;;;;;;;5.03;1.67;;;19.00;99.90;;;;;;6177987;23;20012;-93
2022/07/09 07:50:35;;;;;;;6.07;2.40;;;19.10;99.90;;;;;;6177482;23;20067;-93
2022/07/09 07:53:01;;;;;;;2.20;1.88;;;19.30;99.90;;;;;;6202057;23;20038;-94
2022/07/09 07:55:26;;;;;;;4.28;1.90;;;19.60;99.90;;;;;;6202464;23;20446;-94
2022/07/09 07:57:53;;;;;;;4.15;2.10;;;19.20;99.90;;;;;;6178349;23;20018;-95
2022/07/09 08:00:18;;;;;;;6.43;1.77;;;19.10;99.90;;;;;;6204524;23;20066;-94
2022/07/09 08:02:44;;;;;;;3.83;1.73;;;19.10;99.90;;;;;;6179873;23;20016;-94
2022/07/09 08:05:11;;;;;;;5.03;1.65;;;19.30;99.90;;;;;;6177433;23;20035;-93
2022/07/09 08:07:36;;;;;;;2.90;1.73;;;19.30;99.90;;;;;;6200726;23;20397;-94
2022/07/09 08:10:03;;;;;;;2.20;1.50;;;19.50;99.90;;;;;;6204917;22;20044;-93
2022/07/09 08:12:29;;;;;;;3.83;1.77;;;19.30;99.90;;;;;;6236667;22;20054;-94
2022/07/09 08:14:55;;;;;;;4.07;2.13;;;19.10;99.90;;;;;;6211075;22;20022;-92
2022/07/09 08:17:21;;;;;;;6.25;2.30;;;19.10;99.90;;;;;;6237807;22;20022;-93
2022/07/09 08:19:49;;;;;;;5.18;1.70;;;19.50;99.90;;;;;;6209064;22;20089;-94
2022/07/09 08:22:15;;;;;;;5.57;1.80;;;19.90;99.90;;;;;;6235872;22;20015;-94
2022/07/09 08:24:41;;;;;;;5.18;2.15;;;19.90;99.90;;;;;;6235736;22;20011;-93
2022/07/09 08:27:07;;;;;;;3.08;1.38;;;19.90;99.90;;;;;;6212142;22;20449;-94
2022/07/09 08:29:33;;;;;;;4.15;1.70;;;19.50;99.90;;;;;;6209873;22;20007;-92
2022/07/09 08:31:59;;;;;;;4.20;1.77;;;19.80;99.90;;;;;;6234780;22;20051;-93
2022/07/09 08:34:25;;;;;;;4.30;1.77;;;19.60;99.90;;;;;;6260542;22;20015;-95
2022/07/09 08:36:51;;;;;;;4.40;2.00;;;19.40;99.90;;;;;;6207990;22;20019;-94
2022/07/09 08:39:17;;;;;;;4.75;1.65;;;19.20;99.90;;;;;;6210769;22;20070;-94
2022/07/09 08:41:43;;;;;;;4.78;1.80;;;19.00;99.90;;;;;;6210473;22;20016;-94
2022/07/09 08:44:15;;;;;;;3.42;1.70;;;19.50;99.90;;;;;;6260731;22;20011;-93
2022/07/09 08:46:41;;;;;;;5.65;2.20;;;20.10;99.90;;;;;;6259411;22;20436;-93
2022/07/09 08:49:08;;;;;;;3.85;1.60;;;20.30;99.90;;;;;;6259665;22;20013;-93
2022/07/09 08:51:36;;;;;;;6.78;1.90;;;20.20;99.90;;;;;;6234030;22;20086;-93
2022/07/09 08:54:02;;;;;;;6.72;2.13;;;19.90;99.90;;;;;;6260067;22;20019;-94
2022/07/09 08:56:28;;;;;;;5.38;2.20;;;19.30;99.90;;;;;;6211155;22;20047;-95
2022/07/09 08:58:54;;;;;;;4.90;2.10;;;18.90;99.90;;;;;;6237832;22;20076;-93
2022/07/09 09:01:20;;;;;;;7.43;1.77;;;18.80;99.90;;;;;;6259216;22;20011;-94
2022/07/09 09:03:46;;;;;;;6.93;2.10;;;18.80;99.90;;;;;;6234678;22;20531;-95
2022/07/09 09:06:13;;;;;;;6.03;1.90;;;18.90;99.90;;;;;;6210046;22;20022;-93
2022/07/09 09:08:41;;;;;;;6.68;2.50;;;19.50;99.90;;;;;;6221142;22;20412;-94
2022/07/09 09:11:22;;;;;;;6.63;2.00;;;19.40;99.90;;;;;;6281655;22;20015;-93
2022/07/09 09:13:49;;;;;;;7.90;2.28;;;19.20;99.90;;;;;;6281670;22;20015;-93
2022/07/09 09:16:17;;;;;;;6.97;2.65;;;19.30;99.90;;;;;;6256684;22;20011;-93
2022/07/09 09:18:48;;;;;;;4.40;1.92;;;19.30;99.90;;;;;;6255181;22;20318;-94
2022/07/09 09:21:16;;;;;;;5.80;2.28;;;19.30;99.90;;;;;;6282120;22;20011;-93
2022/07/09 09:23:43;;;;;;;5.18;2.33;;;19.80;99.90;;;;;;6260128;22;20018;-93
2022/07/09 09:26:10;;;;;;;8.98;2.17;;;19.50;99.90;;;;;;6258061;22;20007;-92
2022/07/09 09:28:48;;;;;;;4.75;2.00;;;19.60;99.90;;;;;;6256387;22;20011;-94
2022/07/09 09:31:28;;;;;;;6.30;2.47;;;19.90;99.90;;;;;;6281540;22;20015;-93
2022/07/09 09:33:56;;;;;;;3.60;1.95;;;20.20;99.90;;;;;;6255457;22;20458;-91
2022/07/09 09:36:31;;;;;;;4.93;1.83;;;20.40;99.90;;;;;;6256265;22;20027;-90
2022/07/09 09:39:11;;;;;;;4.45;1.60;;;20.10;99.90;;;;;;6282067;22;20102;-92
2022/07/09 09:41:37;;;;;;;4.40;1.90;;;19.90;99.90;;;;;;6256046;22;20011;-92
2022/07/09 09:44:11;;;;;;;7.95;2.90;;;19.80;99.90;;;;;;6254674;22;20060;-93
2022/07/09 09:46:38;;;;;;;5.72;1.92;;;19.70;99.90;;;;;;6256527;22;20440;-93
2022/07/09 09:49:09;;;;;;;4.38;1.65;;;20.00;99.90;;;;;;6255617;22;20030;-93
2022/07/09 09:51:44;;;;;;;4.28;1.80;;;19.80;99.90;;;;;;6281610;22;20074;-92
2022/07/09 09:54:10;;;;;;;;;;;20.00;99.90;;;;;;6281254;22;20018;-91
2022/07/09 09:56:36;;;;;;;2.67;1.80;;;20.40;99.90;;;;;;6281196;22;19982;-92
2022/07/09 09:59:03;;;;;;;4.43;1.70;;;20.60;99.90;;;;;;6230379;22;20026;-92
2022/07/09 10:01:29;;;;;;;4.30;1.52;;;20.80;99.90;;;;;;6308260;22;20019;-91
2022/07/09 10:03:56;;;;;;;4.80;2.00;;;20.60;99.90;;;;;;6256236;22;20091;-90
2022/07/09 10:06:38;;;;;;;4.85;1.80;;;20.90;99.90;;;;;;6254739;22;20332;-93
2022/07/09 10:09:07;;;;;;;5.93;1.75;;;21.00;99.90;;;;;;6254501;22;20022;-91
2022/07/09 10:11:48;;;;;;;5.40;2.20;;;20.90;99.90;;;;;;6256066;22;20019;-91
2022/07/09 10:14:24;;;;;;;6.45;1.75;;;20.60;99.90;;;;;;6279906;22;20094;-92
2022/07/09 10:16:51;;;;;;;6.65;2.13;;;20.20;99.90;;;;;;6279622;22;20011;-93
2022/07/09 10:19:33;;;;;;;5.78;2.00;;;19.60;99.90;;;;;;6279715;22;20517;-92
2022/07/09 10:22:00;;;;;;;3.05;1.73;;;19.70;99.90;;;;;;6280028;22;20012;-91
2022/07/09 10:24:37;;;;;;;3.70;1.67;;;19.40;99.90;;;;;;6254859;22;20050;-91
2022/07/09 10:27:07;;;;;;;6.00;1.67;;;19.30;99.90;;;;;;6254333;22;20034;-92
2022/07/09 10:29:34;;;;;;;4.72;1.65;;;19.20;99.90;;;;;;6280079;22;20054;-91
2022/07/09 10:32:21;;;;;;;8.80;2.03;;;19.20;99.90;;;;;;6279952;22;20444;-90
2022/07/09 10:35:04;;;;;;;5.85;1.85;;;19.10;99.90;;;;;;6259057;22;20026;-90
2022/07/09 10:37:36;;;;;;;8.40;1.70;;;19.10;99.90;;;;;;6255153;22;20016;-91
2022/07/09 10:40:09;;;;;;;4.47;1.60;;;19.20;99.90;;;;;;6279734;22;20085;-92
2022/07/09 10:42:35;;;;;;;8.88;1.88;;;19.00;99.90;;;;;;6280784;22;20385;-92
2022/07/09 10:45:01;;;;;;;4.63;1.83;;;18.90;99.90;;;;;;6228583;22;20007;-90
2022/07/09 10:47:47;;;;;;;3.30;1.80;;;18.70;99.90;;;;;;6228747;22;20011;-89
2022/07/09 10:50:12;;;;;;;5.68;1.58;;;18.70;99.90;;;;;;6280326;22;20094;-91
2022/07/09 10:52:39;;;;;;;3.58;1.40;;;19.10;99.90;;;;;;6228107;22;20408;-92
2022/07/09 10:55:05;;;;;;;2.72;1.30;;;19.90;99.90;;;;;;6228513;22;20057;-90
2022/07/09 10:57:31;;;;;;;3.63;1.70;;;19.60;99.90;;;;;;6228871;22;20015;-90
2022/07/09 10:59:57;;;;;;;5.00;1.55;;;19.10;99.90;;;;;;6252967;22;20045;-91
2022/07/09 11:02:23;;;;;;;5.38;1.55;;;19.10;99.90;;;;;;6228799;22;20011;-90
2022/07/09 11:04:51;;;;;;;4.07;1.30;;;19.20;99.90;;;;;;6227883;22;20007;-92
2022/07/09 11:07:24;;;;;;;5.15;1.48;;;20.00;99.90;;;;;;6254002;22;20103;-95
2022/07/09 11:09:51;;;;;;;5.28;1.63;;;20.40;99.90;;;;;;6254171;22;20058;-90
2022/07/09 11:12:21;;;;;;;7.65;1.70;;;20.30;99.90;;;;;;6253416;22;20098;-90
2022/07/09 11:25:30;;;;;;;2.83;1.10;;;20.40;99.90;;;;;;6208090;22;1374208;-90
2022/07/09 11:27:57;;;;;;;5.32;1.60;;;20.50;99.90;;;;;;6254178;22;20019;-90
2022/07/09 11:30:25;;;;;;;6.47;1.63;;;20.90;99.90;;;;;;6181956;22;20019;-89
2022/07/09 11:32:51;;;;;;;4.32;1.17;;;21.10;99.90;;;;;;6180712;22;20068;-90
2022/07/09 11:35:44;;;;;;;3.60;1.20;;;20.80;99.90;;;;;;6232249;22;20479;-92
2022/07/09 11:38:10;;;;;;;5.25;1.10;;;20.10;99.90;;;;;;6200263;22;20022;-90
2022/07/09 11:40:36;;;;;;;4.18;1.40;;;19.80;99.90;;;;;;6206231;22;20077;-88
2022/07/09 11:43:11;;;;;;;4.97;1.17;;;19.90;99.90;;;;;;6205743;22;20015;-90
2022/07/09 11:45:39;;;;;;;10.80;1.45;;;20.20;99.90;;;;;;6208530;22;20456;-89
2022/07/09 11:48:10;;;;;;;5.82;1.42;;;20.40;99.90;;;;;;6205722;22;20019;-90
2022/07/09 11:50:44;;;;;;;6.07;1.10;;;20.70;99.90;;;;;;6230672;22;20015;-88
2022/07/09 11:53:27;;;;;;;4.70;1.15;;;21.00;99.90;;;;;;6231074;22;20382;-90
2022/07/09 11:56:00;;;;;;;3.90;0.90;;;20.80;99.90;;;;;;6230683;22;20015;-90
2022/07/09 11:58:26;;;;;;;4.35;1.85;;;21.30;99.90;;;;;;6206632;22;20342;-90
2022/07/09 12:00:52;;;;;;;4.53;1.02;;;20.90;99.90;;;;;;6179186;22;20033;-90
2022/07/09 12:03:26;;;;;;;4.22;1.20;;;20.60;99.90;;;;;;6203758;22;20424;-89
2022/07/09 12:05:53;;;;;;;3.70;1.20;;;21.20;99.90;;;;;;6204620;22;20018;-90
2022/07/09 12:08:31;;;;;;;3.10;1.08;;;20.30;99.90;;;;;;6203640;22;20069;-90
2022/07/09 12:11:02;;;;;;;3.47;1.10;;;20.50;99.90;;;;;;6228748;22;20285;-89
2022/07/09 12:13:29;;;;;;;3.10;1.20;;;20.60;99.90;;;;;;6229526;22;20019;-90
2022/07/09 12:15:55;;;;;;;4.70;1.50;;;21.10;99.90;;;;;;6180921;22;20062;-90
2022/07/09 12:18:21;;;;;;;4.75;1.17;;;21.10;99.90;;;;;;6204323;22;20090;-90
2022/07/09 12:20:47;;;;;;;4.68;1.35;;;20.90;99.90;;;;;;6204355;22;20020;-91
2022/07/09 12:23:22;;;;;;;5.80;1.73;;;21.00;99.90;;;;;;6179075;22;20018;-90
2022/07/09 12:25:48;;;;;;;3.97;1.00;;;20.60;99.90;;;;;;6223975;22;20344;-91
2022/07/09 12:28:23;;;;;;;3.03;1.20;;;21.10;99.90;;;;;;6175440;22;20098;-90
2022/07/09 12:30:49;;;;;;;3.55;1.60;;;21.10;99.90;;;;;;6176202;22;20452;-90
2022/07/09 12:33:15;;;;;;;4.95;1.13;;;20.90;99.90;;;;;;6174516;22;20020;-92
2022/07/09 12:35:41;;;;;;;2.83;1.42;;;20.80;99.90;;;;;;6197216;22;20008;-92
2022/07/09 12:38:07;;;;;;;3.95;1.30;;;20.60;99.90;;;;;;6171967;22;20050;-91
2022/07/09 12:40:33;;;;;;;4.00;1.40;;;21.00;99.90;;;;;;6172414;22;20065;-91
2022/07/09 12:42:59;;;;;;;4.97;1.40;;;20.60;99.90;;;;;;6173241;22;20077;-90
2022/07/09 12:45:24;;;;;;;5.57;1.75;;;20.60;99.90;;;;;;6173726;22;20012;-89
2022/07/09 12:47:52;;;;;;;4.10;1.25;;;21.20;99.90;;;;;;6174198;22;20016;-91
2022/07/09 12:50:18;;;;;;;6.90;1.30;;;20.80;99.90;;;;;;6173835;22;20090;-90
2022/07/09 12:52:43;;;;;;;2.88;1.00;;;20.50;99.90;;;;;;6173707;22;20015;-90
2022/07/09 12:55:10;;;;;;;3.05;1.35;;;20.20;99.90;;;;;;6199029;22;20012;-89
2022/07/09 12:57:38;;;;;;;4.05;1.20;;;20.20;99.90;;;;;;6198357;22;20035;-90
2022/07/09 13:00:05;;;;;;;1.70;0.90;;;20.30;99.90;;;;;;6198945;22;20030;-90